Anzali, Iran

2:55 AM IRST on February 15, 2016 (GMT +0330)
Rasht | | Change Station
CLOSE
Current Station
Airport
Location: Rasht,
Elevation: -30 ft
Nearby Weather Stations

Elev -30 ft 37.33 °N, 49.61 °E | Updated 25 minutes ago

Mostly Cloudy
Mostly Cloudy
41 °F
Feels Like 41 °F
N
0
Wind Variable Wind from North

Today
High -- | Low -- °F
--% Chance of Precip.
Yesterday
High -- | Low -- °F
Precip. -- in
Pressure 30.09 in
Visibility 1.1 miles
Clouds Scattered Clouds 1000 ft
Mostly Cloudy 8000 ft
Dew Point 41 °F
Humidity 100%
Rainfall 0.00 in
Snow Depth Not available.
7:02 AM 5:50 PM
Waxing Crescent, 46% visible
METAR OIGG 142300Z 00000KT 1800 BR SCT010 BKN080 05/05 Q1019
Pressure 30.09 in
Visibility 1.1 miles
Clouds Scattered Clouds 1000 ft
Mostly Cloudy 8000 ft
Dew Point 41 °F
Humidity 100%
Rainfall 0.00 in
Snow Depth Not available.
7:02 AM 5:50 PM
Waxing Crescent, 46% visible
METAR OIGG 142300Z 00000KT 1800 BR SCT010 BKN080 05/05 Q1019

10-Day Weather Forecast

No radar image for this location.
×

Almanac

Astronomy

Feb. 15, 2016 Rise Set
Actual Time
Civil Twilight
Nautical Twilight
Astronomical Twilight
Moon
Length of Visible Light
Length of Day
Tomorrow will be .
, % of the Moon is Illuminated

Today's Extremes

Country Highs Country Lows

Community

WunderPhotos

Upload Photos

1,892,915 photos uploaded!

WunderBlog® & News

Nearby

Air Quality

  Air Quality AQ Index Pollutant
Not available.

Snow Depth

Station Depth Elevation

Earthquake Activity

City Distance Mag. Time & Date
Minimum magnitude displayed is 2.5.

Coastal Water Temperatures

Place Temperature

Stations

Nearby Weather Stations

Station Location Temp. Windchill Dew Point Humidity Wind Precip. Elev Updated Type